Time;durP1;ratioP1;P1;durP2;ratioP2;P2;SDS_P1;SDS_P2;PMS_P1;PMS_P2;Temp;Humidity;BMP_temperature;BMP_pressure;BME280_temperature;BME280_humidity;BME280_pressure;Samples;Min_cycle;Max_cycle;Signal;HPM_P1;HPM_P2
2021/10/02 00:31:02;;;;;;;;;;;;;;;;;;1030238;28;1656;-35
2021/10/02 00:37:23;;;;;;;;;;;;;;;;;;1025680;28;1556;-30
2021/10/02 00:41:16;;;;;;;;;;;;;;;;;;1030276;28;1127;-32
2021/10/02 00:44:43;;;;;;;;;;;;;;;;;;1024099;28;1632;-28
2021/10/02 00:45:14;;;;;;;;;;;;;;;;;;1026399;28;1572;-29
2021/10/02 00:45:45;;;;;;;;;;;;;;;;;;1025724;28;1133;-29
2021/10/02 00:46:16;;;;;;;;;;;;;;;;;;1025752;28;1306;-29
2021/10/02 00:46:47;;;;;;;;;;;;;;;;;;1025917;28;1348;-32
2021/10/02 00:47:19;;;;;;;;;;;;;;;;;;1025014;28;1736;-32
2021/10/02 00:47:53;;;;;;;;;;;;;;;;;;1026517;28;1004;-31
2021/10/02 00:48:24;;;;;;;;;;;;;;;;;;1034147;28;1142;-33
2021/10/02 00:48:56;;;;;;;;;;;;;;;;;;1029435;28;1241;-31
2021/10/02 00:49:26;;;;;;;;;;;;;;;;;;1021370;29;1103;-31
2021/10/02 00:49:57;;;;;;;;;;;;;;;;;;1017340;29;1415;-35
2021/10/02 00:50:28;;;;;;;;;;;;;;;;;;1010547;29;1383;-37
2021/10/02 00:51:00;;;;;;;;;;;;;;;;;;1018182;28;1084;-35
2021/10/02 00:51:30;;;;;;;;;;;;;;;;;;1025877;28;1291;-33
2021/10/02 00:52:02;;;;;;;;;;;;;;;;;;1018704;29;1136;-33
2021/10/02 00:52:33;;;;;;;;;;;;;;;;;;1013848;29;1639;-34
2021/10/02 00:53:03;;;;;;;;;;;;;;;;;;1006352;29;1308;-34
2021/10/02 00:53:35;;;;;;;;;;;;;;;;;;1010491;29;1084;-34
2021/10/02 00:54:05;;;;;;;;;;;;;;;;;;1013854;29;1133;-33
2021/10/02 00:54:36;;;;;;;;;;;;;;;;;;1013917;29;1104;-32
2021/10/02 00:55:07;;;;;;;;;;;;;;;;;;1009427;29;1463;-32
2021/10/02 00:55:38;;;;;;;;;;;;;;;;;;1009960;29;1261;-34
2021/10/02 00:56:09;;;;;;;;;;;;;;;;;;1014215;29;1998;-32
2021/10/02 00:56:40;;;;;;;;;;;;;;;;;;1014031;29;1339;-32
2021/10/02 00:57:11;;;;;;;;;;;;;;;;;;1021912;28;1102;-34
2021/10/02 00:57:41;;;;;;;;;;;;;;;;;;1026068;28;1092;-28
2021/10/02 00:58:12;;;;;;;;;;;;;;;;;;1021451;29;1437;-33
2021/10/02 00:58:49;;;;;;;;;;;;;;;;;;1017962;29;1084;-35
2021/10/02 00:59:19;;;;;;;;;;;;;;;;;;1017643;29;1517;-32
2021/10/02 00:59:50;;;;;;;;;;;;;;;;;;1018455;29;1274;-29
2021/10/02 01:00:21;;;;;;;;;;;;;;;;;;1023151;28;977;-29
2021/10/02 01:00:53;;;;;;;;;;;;;;;;;;1025916;28;1353;-34
2021/10/02 01:01:31;;;;;;;;;;;;;;;;;;1026545;28;1124;-33
2021/10/02 01:02:11;;;;;;;;;;;;;;;;;;1026192;28;1494;-31
2021/10/02 01:02:48;;;;;;;;;;;;;;;;;;1025818;28;1162;-32
2021/10/02 01:03:24;;;;;;;;;;;;;;;;;;1025688;28;1530;-30
2021/10/02 01:04:00;;;;;;;;;;;;;;;;;;1025813;28;1188;-29
2021/10/02 01:04:42;;;;;;;;;;;;;;;;;;1028293;28;1128;-31
2021/10/02 01:05:13;;;;;;;;;;;;;;;;;;1027386;28;1101;-34
2021/10/02 01:06:01;;;;;;;;;;;;;;;;;;1026772;28;850;-35
2021/10/02 01:06:58;;;;;;;;;;;;;;;;;;1026678;28;1422;-34
2021/10/02 01:07:40;;;;;;;;;;;;;;;;;;1017495;29;1382;-32
2021/10/02 01:08:19;;;;;;;;;;;;;;;;;;1019972;29;1021;-30
2021/10/02 01:09:05;;;;;;;;;;;;;;;;;;1021956;29;1009;-33
2021/10/02 01:09:36;;;;;;;;;;;;;;;;;;1026430;28;1205;-35
2021/10/02 01:10:25;;;;;;;;;;;;;;;;;;1021825;29;1051;-34
2021/10/02 01:11:02;;;;;;;;;;;;;;;;;;1021507;29;1706;-32
2021/10/02 01:11:32;;;;;;;;;;;;;;;;;;1021871;29;1626;-35
2021/10/02 01:12:07;;;;;;;;;;;;;;;;;;1025335;28;968;-33
2021/10/02 01:12:55;;;;;;;;;;;;;;;;;;1025857;28;1238;-32
2021/10/02 01:13:30;;;;;;;;;;;;;;;;;;1026073;28;1285;-31
2021/10/02 01:14:15;;;;;;;;;;;;;;;;;;1026848;28;1241;-33
2021/10/02 01:14:58;;;;;;;;;;;;;;;;;;1022030;29;1130;-34
2021/10/02 01:15:33;;;;;;;;;;;;;;;;;;1018143;29;1009;-32
2021/10/02 01:16:13;;;;;;;;;;;;;;;;;;1013947;29;1992;-33
2021/10/02 01:16:46;;;;;;;;;;;;;;;;;;1017695;29;1082;-29
2021/10/02 01:17:33;;;;;;;;;;;;;;;;;;1014037;29;1082;-32
2021/10/02 01:18:07;;;;;;;;;;;;;;;;;;1017489;29;1146;-30
2021/10/02 01:18:46;;;;;;;;;;;;;;;;;;1014127;29;902;-30
2021/10/02 01:19:45;;;;;;;;;;;;;;;;;;1009768;29;1337;-30
2021/10/02 01:20:28;;;;;;;;;;;;;;;;;;1003466;29;1053;-35
2021/10/02 01:21:01;;;;;;;;;;;;;;;;;;1007647;29;1665;-32
2021/10/02 01:21:49;;;;;;;;;;;;;;;;;;1010222;29;975;-29
2021/10/02 01:22:34;;;;;;;;;;;;;;;;;;1020353;29;1099;-27
2021/10/02 01:23:24;;;;;;;;;;;;;;;;;;1025882;28;1035;-30
2021/10/02 01:24:00;;;;;;;;;;;;;;;;;;1026009;28;1262;-28
2021/10/02 01:24:40;;;;;;;;;;;;;;;;;;1028073;28;1544;-30
2021/10/02 01:25:28;;;;;;;;;;;;;;;;;;1029813;28;1196;-26
2021/10/02 01:26:08;;;;;;;;;;;;;;;;;;1030005;28;1112;-32
2021/10/02 01:26:57;;;;;;;;;;;;;;;;;;1029942;28;1026;-31
2021/10/02 01:27:37;;;;;;;;;;;;;;;;;;1030142;28;1037;-33
2021/10/02 01:28:12;;;;;;;;;;;;;;;;;;1022564;28;1425;-28
2021/10/02 01:28:44;;;;;;;;;;;;;;;;;;1021786;29;1207;-30
2021/10/02 01:29:15;;;;;;;;;;;;;;;;;;1009746;29;1143;-32
2021/10/02 01:29:46;;;;;;;;;;;;;;;;;;1010044;29;1346;-30
2021/10/02 01:30:22;;;;;;;;;;;;;;;;;;1005838;29;1264;-33
2021/10/02 01:31:36;;;;;;;;;;;;;;;;;;1021859;29;1631;-33
2021/10/02 01:32:16;;;;;;;;;;;;;;;;;;1021828;29;1196;-32
2021/10/02 01:32:58;;;;;;;;;;;;;;;;;;1011144;29;1054;-32
2021/10/02 01:34:15;;;;;;;;;;;;;;;;;;1018254;29;1117;-28
2021/10/02 01:47:09;;;;;;;;;;;;;;;;;;1013686;29;1064;-28
2021/10/02 01:47:34;;;;;;;;;;;;;;;;;;1006378;29;1152;-27
2021/10/02 01:48:05;;;;;;;;;;;;;;;;;;1006030;29;1417;-30
2021/10/02 01:48:37;;;;;;;;;;;;;;;;;;1006158;29;1457;-33
2021/10/02 01:49:07;;;;;;;;;;;;;;;;;;1007534;29;999;-31
2021/10/02 01:49:39;;;;;;;;;;;;;;;;;;1017577;29;1478;-33
2021/10/02 01:50:10;;;;;;;;;;;;;;;;;;1006430;29;1099;-30
2021/10/02 01:50:43;;;;;;;;;;;;;;;;;;1015558;29;1586;-28
2021/10/02 01:51:14;;;;;;;;;;;;;;;;;;1008705;29;1202;-31
2021/10/02 01:51:45;;;;;;;;;;;;;;;;;;1007685;29;948;-28
2021/10/02 01:52:19;;;;;;;;;;;;;;;;;;1017822;29;1534;-32
2021/10/02 01:52:50;;;;;;;;;;;;;;;;;;1018753;29;1020;-26
2021/10/02 01:53:23;;;;;;;;;;;;;;;;;;1021571;29;1265;-28
2021/10/02 01:53:54;;;;;;;;;;;;;;;;;;1021909;29;1121;-29
2021/10/02 01:54:26;;;;;;;;;;;;;;;;;;1017904;29;1188;-29
2021/10/02 01:54:58;;;;;;;;;;;;;;;;;;1017929;29;1375;-31
2021/10/02 01:55:29;;;;;;;;;;;;;;;;;;1021782;29;981;-30
2021/10/02 01:56:03;;;;;;;;;;;;;;;;;;1021367;29;1918;-28
2021/10/02 01:56:35;;;;;;;;;;;;;;;;;;1017774;29;1064;-28
2021/10/02 01:57:06;;;;;;;;;;;;;;;;;;1013275;29;1103;-28
2021/10/02 01:57:38;;;;;;;;;;;;;;;;;;1010767;29;1592;-31
2021/10/02 01:58:13;;;;;;;;;;;;;;;;;;1012247;29;1206;-31
2021/10/02 01:58:45;;;;;;;;;;;;;;;;;;1022443;28;1253;-30
2021/10/02 01:59:24;;;;;;;;;;;;;;;;;;1022030;29;1506;-30
2021/10/02 01:59:56;;;;;;;;;;;;;;;;;;1009986;29;1469;-29
2021/10/02 02:00:27;;;;;;;;;;;;;;;;;;1002277;29;1078;-31
2021/10/02 02:00:58;;;;;;;;;;;;;;;;;;999937;29;1137;-34
2021/10/02 02:01:29;;;;;;;;;;;;;;;;;;1003248;29;1739;-31
2021/10/02 02:02:01;;;;;;;;;;;;;;;;;;1017970;29;1219;-31
2021/10/02 02:02:32;;;;;;;;;;;;;;;;;;1010470;29;1067;-32
2021/10/02 02:03:04;;;;;;;;;;;;;;;;;;1013868;29;1522;-30
2021/10/02 02:03:37;;;;;;;;;;;;;;;;;;1014253;29;1048;-31
2021/10/02 02:04:07;;;;;;;;;;;;;;;;;;1019077;28;1375;-30
2021/10/02 02:04:39;;;;;;;;;;;;;;;;;;1026589;28;1241;-28
2021/10/02 02:05:10;;;;;;;;;;;;;;;;;;1026758;28;1101;-32
2021/10/02 02:05:42;;;;;;;;;;;;;;;;;;1037543;28;1413;-32
2021/10/02 02:06:13;;;;;;;;;;;;;;;;;;1029982;28;1038;-29
2021/10/02 02:06:44;;;;;;;;;;;;;;;;;;1029676;28;1427;-32
2021/10/02 02:07:16;;;;;;;;;;;;;;;;;;1020985;29;1073;-27
2021/10/02 02:07:49;;;;;;;;;;;;;;;;;;1014748;29;1034;-33
2021/10/02 02:08:21;;;;;;;;;;;;;;;;;;1021572;29;1344;-32
2021/10/02 02:08:52;;;;;;;;;;;;;;;;;;1022666;28;1033;-33
2021/10/02 02:09:25;;;;;;;;;;;;;;;;;;1026809;28;946;-30
2021/10/02 02:09:57;;;;;;;;;;;;;;;;;;1028924;28;1255;-33
2021/10/02 02:10:28;;;;;;;;;;;;;;;;;;1025873;28;1006;-31
2021/10/02 02:10:59;;;;;;;;;;;;;;;;;;1029859;28;1170;-30
2021/10/02 02:11:30;;;;;;;;;;;;;;;;;;1029943;28;1056;-29
2021/10/02 02:12:01;;;;;;;;;;;;;;;;;;1013924;29;1824;-31
2021/10/02 02:12:33;;;;;;;;;;;;;;;;;;1013425;29;1201;-32
2021/10/02 02:13:04;;;;;;;;;;;;;;;;;;1010295;29;941;-33
2021/10/02 02:13:36;;;;;;;;;;;;;;;;;;1013975;29;1563;-33
2021/10/02 02:14:10;;;;;;;;;;;;;;;;;;1019290;28;1094;-34
2021/10/02 02:14:41;;;;;;;;;;;;;;;;;;1025454;28;1613;-34
2021/10/02 02:15:13;;;;;;;;;;;;;;;;;;1025075;28;1170;-32
2021/10/02 02:15:44;;;;;;;;;;;;;;;;;;1021994;29;952;-29
2021/10/02 02:16:15;;;;;;;;;;;;;;;;;;1022126;28;1436;-29
2021/10/02 02:16:46;;;;;;;;;;;;;;;;;;1026208;28;1249;-30
2021/10/02 02:17:20;;;;;;;;;;;;;;;;;;1026225;28;1110;-28
2021/10/02 02:17:55;;;;;;;;;;;;;;;;;;1025747;28;1622;-32
2021/10/02 02:18:26;;;;;;;;;;;;;;;;;;1026535;28;930;-32
2021/10/02 02:18:57;;;;;;;;;;;;;;;;;;1026417;28;1403;-31
2021/10/02 02:19:29;;;;;;;;;;;;;;;;;;1026623;28;1041;-29
2021/10/02 02:20:12;;;;;;;;;;;;;;;;;;1026711;28;1660;-27
2021/10/02 02:20:44;;;;;;;;;;;;;;;;;;1022677;29;1324;-28
2021/10/02 02:21:15;;;;;;;;;;;;;;;;;;1018720;29;1377;-30
2021/10/02 02:21:45;;;;;;;;;;;;;;;;;;1018699;29;1026;-27
2021/10/02 02:22:16;;;;;;;;;;;;;;;;;;1019126;29;1072;-31
2021/10/02 02:22:47;;;;;;;;;;;;;;;;;;1022133;28;1490;-30
2021/10/02 02:23:18;;;;;;;;;;;;;;;;;;1022487;29;1226;-34
2021/10/02 02:23:48;;;;;;;;;;;;;;;;;;1022742;29;896;-29
2021/10/02 02:24:19;;;;;;;;;;;;;;;;;;1022632;29;1065;-28
2021/10/02 02:24:50;;;;;;;;;;;;;;;;;;1018633;29;1356;-30
2021/10/02 02:25:20;;;;;;;;;;;;;;;;;;1022720;29;1305;-30
2021/10/02 02:25:52;;;;;;;;;;;;;;;;;;1018661;29;978;-32
2021/10/02 02:26:25;;;;;;;;;;;;;;;;;;1014982;29;1199;-32
2021/10/02 02:26:57;;;;;;;;;;;;;;;;;;1014201;29;1334;-32
2021/10/02 02:27:28;;;;;;;;;;;;;;;;;;1010157;29;981;-31
2021/10/02 02:27:58;;;;;;;;;;;;;;;;;;1016469;29;1421;-33
2021/10/02 02:28:30;;;;;;;;;;;;;;;;;;1018342;29;1129;-32
2021/10/02 02:29:02;;;;;;;;;;;;;;;;;;1018731;29;977;-32
2021/10/02 02:29:33;;;;;;;;;;;;;;;;;;1015271;29;1072;-29
2021/10/02 02:30:03;;;;;;;;;;;;;;;;;;1023178;28;1042;-34
2021/10/02 02:30:34;;;;;;;;;;;;;;;;;;1026658;28;1071;-28
2021/10/02 02:31:05;;;;;;;;;;;;;;;;;;1023419;28;879;-32
2021/10/02 02:31:37;;;;;;;;;;;;;;;;;;1022675;29;1027;-30
2021/10/02 02:32:08;;;;;;;;;;;;;;;;;;1022144;29;1536;-32
2021/10/02 02:32:39;;;;;;;;;;;;;;;;;;1022422;29;1237;-32
2021/10/02 02:33:10;;;;;;;;;;;;;;;;;;1022783;29;982;-28
2021/10/02 02:33:41;;;;;;;;;;;;;;;;;;1023174;28;1292;-32
2021/10/02 02:34:11;;;;;;;;;;;;;;;;;;1023370;28;954;-33
2021/10/02 02:34:42;;;;;;;;;;;;;;;;;;1023577;28;3275;-30
2021/10/02 02:35:12;;;;;;;;;;;;;;;;;;1027285;28;1131;-31
2021/10/02 02:35:43;;;;;;;;;;;;;;;;;;1027429;28;1052;-33
2021/10/02 02:36:13;;;;;;;;;;;;;;;;;;1026692;28;3536;-30
2021/10/02 02:36:44;;;;;;;;;;;;;;;;;;1027357;28;1179;-33
2021/10/02 02:37:15;;;;;;;;;;;;;;;;;;1026395;28;1277;-31
2021/10/02 02:37:45;;;;;;;;;;;;;;;;;;1026372;28;1054;-31
2021/10/02 02:38:16;;;;;;;;;;;;;;;;;;1026690;28;1217;-32
2021/10/02 02:38:46;;;;;;;;;;;;;;;;;;1022247;28;3684;-29
2021/10/02 02:39:17;;;;;;;;;;;;;;;;;;1022004;28;1506;-29
2021/10/02 02:39:48;;;;;;;;;;;;;;;;;;1014478;29;1026;-30
2021/10/02 02:40:18;;;;;;;;;;;;;;;;;;1014360;29;1419;-33
2021/10/02 02:40:50;;;;;;;;;;;;;;;;;;1014855;29;1027;-34
2021/10/02 02:41:20;;;;;;;;;;;;;;;;;;1018972;29;1037;-33
2021/10/02 02:41:51;;;;;;;;;;;;;;;;;;1023340;28;1013;-31
2021/10/02 02:42:22;;;;;;;;;;;;;;;;;;1023508;28;927;-34
2021/10/02 02:42:53;;;;;;;;;;;;;;;;;;1018602;29;899;-28
2021/10/02 02:43:28;;;;;;;;;;;;;;;;;;1018766;29;1089;-30
2021/10/02 02:43:59;;;;;;;;;;;;;;;;;;1018762;29;1042;-34
2021/10/02 02:44:29;;;;;;;;;;;;;;;;;;1019442;29;812;-33
2021/10/02 02:44:59;;;;;;;;;;;;;;;;;;1023333;29;1106;-32
2021/10/02 02:45:30;;;;;;;;;;;;;;;;;;1023294;29;843;-31
2021/10/02 02:46:17;;;;;;;;;;;;;;;;;;1023435;28;934;-33
2021/10/02 02:46:58;;;;;;;;;;;;;;;;;;1025949;28;1637;-28
2021/10/02 02:47:31;;;;;;;;;;;;;;;;;;1023808;28;1072;-29
2021/10/02 02:48:06;;;;;;;;;;;;;;;;;;1022227;29;1576;-30
2021/10/02 02:48:52;;;;;;;;;;;;;;;;;;1027909;28;1166;-29
2021/10/02 02:49:41;;;;;;;;;;;;;;;;;;1022632;29;1187;-32
2021/10/02 02:50:18;;;;;;;;;;;;;;;;;;1018111;29;1139;-31
2021/10/02 02:50:58;;;;;;;;;;;;;;;;;;1018496;29;926;-34
2021/10/02 02:51:37;;;;;;;;;;;;;;;;;;1022503;29;1012;-30
2021/10/02 02:52:10;;;;;;;;;;;;;;;;;;1029011;28;1025;-31
2021/10/02 02:52:44;;;;;;;;;;;;;;;;;;1027940;28;864;-33
2021/10/02 02:53:27;;;;;;;;;;;;;;;;;;1026479;28;979;-33
2021/10/02 02:53:59;;;;;;;;;;;;;;;;;;1026972;28;956;-31
2021/10/02 02:54:38;;;;;;;;;;;;;;;;;;1027240;28;997;-32
2021/10/02 02:55:10;;;;;;;;;;;;;;;;;;1027459;28;894;-28
2021/10/02 02:55:44;;;;;;;;;;;;;;;;;;1026781;28;990;-33
2021/10/02 02:56:21;;;;;;;;;;;;;;;;;;1026915;28;1918;-29
2021/10/02 02:56:52;;;;;;;;;;;;;;;;;;1026849;28;905;-29
2021/10/02 02:57:26;;;;;;;;;;;;;;;;;;1027061;28;1089;-31
2021/10/02 02:57:58;;;;;;;;;;;;;;;;;;1026464;28;1009;-33
2021/10/02 02:58:30;;;;;;;;;;;;;;;;;;1021924;29;1481;-32
2021/10/02 02:59:04;;;;;;;;;;;;;;;;;;1022374;29;1137;-34
2021/10/02 02:59:39;;;;;;;;;;;;;;;;;;1023414;28;1285;-31
2021/10/02 03:00:13;;;;;;;;;;;;;;;;;;1010617;29;1197;-34
2021/10/02 03:00:53;;;;;;;;;;;;;;;;;;1010747;29;1163;-32
2021/10/02 03:01:25;;;;;;;;;;;;;;;;;;1010427;29;1489;-30
2021/10/02 03:01:57;;;;;;;;;;;;;;;;;;1016728;29;1068;-34
2021/10/02 03:02:29;;;;;;;;;;;;;;;;;;1014617;29;1232;-35
2021/10/02 03:03:01;;;;;;;;;;;;;;;;;;1010558;29;968;-33
2021/10/02 03:03:33;;;;;;;;;;;;;;;;;;1010609;29;1089;-31
2021/10/02 03:04:04;;;;;;;;;;;;;;;;;;1011801;29;1320;-35
2021/10/02 03:04:35;;;;;;;;;;;;;;;;;;1019337;28;1057;-31
2021/10/02 03:05:05;;;;;;;;;;;;;;;;;;1026675;28;942;-33
2021/10/02 03:05:40;;;;;;;;;;;;;;;;;;1026446;28;1482;-34
2021/10/02 03:06:12;;;;;;;;;;;;;;;;;;1025444;28;1071;-33
2021/10/02 03:06:44;;;;;;;;;;;;;;;;;;1022452;29;1057;-33
2021/10/02 03:07:16;;;;;;;;;;;;;;;;;;1010599;29;1201;-33
2021/10/02 03:07:59;;;;;;;;;;;;;;;;;;1011888;29;999;-32
2021/10/02 03:08:31;;;;;;;;;;;;;;;;;;1017890;29;1898;-31
2021/10/02 03:09:02;;;;;;;;;;;;;;;;;;1023101;28;1642;-30
2021/10/02 03:09:35;;;;;;;;;;;;;;;;;;1034241;28;1124;-32
2021/10/02 03:10:10;;;;;;;;;;;;;;;;;;1034627;28;967;-32
2021/10/02 03:10:45;;;;;;;;;;;;;;;;;;1026530;28;1080;-35
2021/10/02 03:11:18;;;;;;;;;;;;;;;;;;1019130;29;1161;-32
2021/10/02 03:11:50;;;;;;;;;;;;;;;;;;1014377;29;1143;-31
2021/10/02 03:12:25;;;;;;;;;;;;;;;;;;1016922;29;1159;-30
2021/10/02 03:13:00;;;;;;;;;;;;;;;;;;1023719;28;1367;-33
2021/10/02 03:13:33;;;;;;;;;;;;;;;;;;1027192;28;1074;-28
2021/10/02 03:14:05;;;;;;;;;;;;;;;;;;1027343;28;945;-30
2021/10/02 03:14:36;;;;;;;;;;;;;;;;;;1018232;29;1288;-26
2021/10/02 03:15:10;;;;;;;;;;;;;;;;;;1017952;29;1538;-30
2021/10/02 03:15:41;;;;;;;;;;;;;;;;;;1010686;29;1329;-30
2021/10/02 03:16:13;;;;;;;;;;;;;;;;;;1011239;29;1960;-33
2021/10/02 03:16:44;;;;;;;;;;;;;;;;;;1014221;29;1677;-32
2021/10/02 03:17:15;;;;;;;;;;;;;;;;;;1015034;29;1257;-31
2021/10/02 03:17:46;;;;;;;;;;;;;;;;;;1022937;28;1170;-30
2021/10/02 03:18:18;;;;;;;;;;;;;;;;;;1027107;28;1010;-34
2021/10/02 03:18:52;;;;;;;;;;;;;;;;;;1027257;28;1391;-31
2021/10/02 03:19:24;;;;;;;;;;;;;;;;;;1026981;28;1267;-33
2021/10/02 03:19:54;;;;;;;;;;;;;;;;;;1022351;28;1082;-33
2021/10/02 03:20:25;;;;;;;;;;;;;;;;;;1014635;29;1068;-29
2021/10/02 03:20:57;;;;;;;;;;;;;;;;;;1014151;29;1482;-33
2021/10/02 03:21:28;;;;;;;;;;;;;;;;;;1002993;29;1061;-34
2021/10/02 03:21:59;;;;;;;;;;;;;;;;;;1011222;29;1039;-33
2021/10/02 03:22:30;;;;;;;;;;;;;;;;;;1017998;29;1201;-29
2021/10/02 03:23:00;;;;;;;;;;;;;;;;;;1019026;28;1067;-34
2021/10/02 03:23:31;;;;;;;;;;;;;;;;;;1025649;28;1282;-32
2021/10/02 03:24:02;;;;;;;;;;;;;;;;;;1027233;28;972;-34
2021/10/02 03:24:35;;;;;;;;;;;;;;;;;;1028048;28;1710;-31
2021/10/02 03:25:06;;;;;;;;;;;;;;;;;;1031110;28;1475;-33
2021/10/02 03:25:38;;;;;;;;;;;;;;;;;;1030325;28;1127;-33
2021/10/02 03:26:08;;;;;;;;;;;;;;;;;;1029860;28;1725;-30
2021/10/02 03:26:39;;;;;;;;;;;;;;;;;;1030335;28;1122;-33
2021/10/02 03:27:10;;;;;;;;;;;;;;;;;;1030210;28;1454;-30
2021/10/02 03:27:41;;;;;;;;;;;;;;;;;;1024513;28;1269;-33
2021/10/02 03:28:11;;;;;;;;;;;;;;;;;;1018502;29;1246;-34
2021/10/02 03:28:42;;;;;;;;;;;;;;;;;;1018181;29;1258;-31
2021/10/02 03:29:13;;;;;;;;;;;;;;;;;;1018673;29;1256;-31
2021/10/02 03:29:43;;;;;;;;;;;;;;;;;;1022808;29;1009;-31
2021/10/02 03:30:14;;;;;;;;;;;;;;;;;;1022351;28;1278;-33
2021/10/02 03:30:45;;;;;;;;;;;;;;;;;;1022717;29;1139;-33
2021/10/02 03:31:35;;;;;;;;;;;;;;;;;;1028719;28;3072;-30
2021/10/02 03:32:08;;;;;;;;;;;;;;;;;;1024273;28;1134;-27
2021/10/02 03:32:39;;;;;;;;;;;;;;;;;;1018067;29;1302;-34
2021/10/02 03:33:13;;;;;;;;;;;;;;;;;;1014042;29;1414;-31
2021/10/02 03:33:46;;;;;;;;;;;;;;;;;;1014530;29;993;-30
2021/10/02 03:34:16;;;;;;;;;;;;;;;;;;1015641;29;1324;-31
2021/10/02 03:34:47;;;;;;;;;;;;;;;;;;1023769;28;1146;-30
2021/10/02 03:35:18;;;;;;;;;;;;;;;;;;1018250;29;1170;-31
2021/10/02 03:35:50;;;;;;;;;;;;;;;;;;1010109;29;1903;-28
2021/10/02 03:36:20;;;;;;;;;;;;;;;;;;1006847;29;1114;-33
2021/10/02 03:36:51;;;;;;;;;;;;;;;;;;1003126;29;1553;-34
2021/10/02 03:37:21;;;;;;;;;;;;;;;;;;1014761;29;979;-32
2021/10/02 03:37:52;;;;;;;;;;;;;;;;;;1022489;29;1605;-32
2021/10/02 03:38:22;;;;;;;;;;;;;;;;;;1022668;28;3541;-28
2021/10/02 03:38:53;;;;;;;;;;;;;;;;;;1026853;28;1147;-31
2021/10/02 03:39:24;;;;;;;;;;;;;;;;;;1029932;28;1099;-29
2021/10/02 03:39:54;;;;;;;;;;;;;;;;;;1026098;28;1235;-29
2021/10/02 03:40:25;;;;;;;;;;;;;;;;;;1026614;28;1184;-32
2021/10/02 03:41:00;;;;;;;;;;;;;;;;;;1021914;29;1510;-33
2021/10/02 03:41:30;;;;;;;;;;;;;;;;;;1022824;28;1089;-33
2021/10/02 03:42:10;;;;;;;;;;;;;;;;;;1022046;29;1532;-30
2021/10/02 03:42:44;;;;;;;;;;;;;;;;;;1020485;29;1229;-30
2021/10/02 03:43:15;;;;;;;;;;;;;;;;;;1016790;29;1115;-33
2021/10/02 03:43:45;;;;;;;;;;;;;;;;;;1019246;28;1577;-34
2021/10/02 03:44:16;;;;;;;;;;;;;;;;;;1026866;28;1221;-30
2021/10/02 03:44:47;;;;;;;;;;;;;;;;;;1026571;28;1548;-33
2021/10/02 03:45:18;;;;;;;;;;;;;;;;;;1026860;28;1480;-34
2021/10/02 03:45:48;;;;;;;;;;;;;;;;;;1026548;28;2286;-32
2021/10/02 03:46:19;;;;;;;;;;;;;;;;;;1026678;28;1208;-33
2021/10/02 03:46:50;;;;;;;;;;;;;;;;;;1026490;28;1117;-33
2021/10/02 03:47:21;;;;;;;;;;;;;;;;;;1022618;28;1079;-33
2021/10/02 03:47:52;;;;;;;;;;;;;;;;;;1021450;29;1577;-34
2021/10/02 03:48:23;;;;;;;;;;;;;;;;;;1022247;29;1095;-31
2021/10/02 03:48:54;;;;;;;;;;;;;;;;;;1021871;28;1317;-30
2021/10/02 03:49:25;;;;;;;;;;;;;;;;;;1017819;29;1528;-27
2021/10/02 03:49:56;;;;;;;;;;;;;;;;;;1017873;29;1034;-29
2021/10/02 03:50:27;;;;;;;;;;;;;;;;;;1014252;29;1026;-33
2021/10/02 03:51:00;;;;;;;;;;;;;;;;;;1006791;29;1128;-32
2021/10/02 03:51:31;;;;;;;;;;;;;;;;;;1014773;29;1052;-31
2021/10/02 03:52:02;;;;;;;;;;;;;;;;;;1014827;29;1109;-33
2021/10/02 03:52:32;;;;;;;;;;;;;;;;;;1018732;29;1037;-32
2021/10/02 03:53:03;;;;;;;;;;;;;;;;;;1022453;29;1144;-30
2021/10/02 03:53:33;;;;;;;;;;;;;;;;;;1022415;28;894;-31
2021/10/02 03:54:04;;;;;;;;;;;;;;;;;;1026242;28;1308;-30
2021/10/02 03:54:34;;;;;;;;;;;;;;;;;;1026014;28;1041;-33
2021/10/02 03:55:06;;;;;;;;;;;;;;;;;;1030283;28;1058;-36
2021/10/02 03:55:37;;;;;;;;;;;;;;;;;;1029790;28;1542;-35
2021/10/02 03:56:09;;;;;;;;;;;;;;;;;;1022058;29;1911;-30
2021/10/02 03:56:39;;;;;;;;;;;;;;;;;;1021999;29;1090;-31
2021/10/02 03:57:09;;;;;;;;;;;;;;;;;;1017942;29;1548;-31
2021/10/02 03:57:40;;;;;;;;;;;;;;;;;;1018829;28;1206;-29
2021/10/02 03:58:11;;;;;;;;;;;;;;;;;;1030060;28;1393;-32
2021/10/02 03:58:42;;;;;;;;;;;;;;;;;;1026076;28;1140;-32
2021/10/02 03:59:13;;;;;;;;;;;;;;;;;;1026293;28;1000;-33
2021/10/02 03:59:43;;;;;;;;;;;;;;;;;;1025832;28;1341;-32
2021/10/02 04:00:14;;;;;;;;;;;;;;;;;;1026254;28;1004;-33
2021/10/02 04:00:44;;;;;;;;;;;;;;;;;;1026310;28;969;-34
2021/10/02 04:01:15;;;;;;;;;;;;;;;;;;1026259;28;1328;-33
2021/10/02 04:01:46;;;;;;;;;;;;;;;;;;1026257;28;1138;-33
2021/10/02 04:02:16;;;;;;;;;;;;;;;;;;1026088;28;1538;-34
2021/10/02 04:02:46;;;;;;;;;;;;;;;;;;1026287;28;1328;-28
2021/10/02 04:03:17;;;;;;;;;;;;;;;;;;1031116;28;929;-33
2021/10/02 04:03:48;;;;;;;;;;;;;;;;;;1029193;28;1445;-30
2021/10/02 04:04:18;;;;;;;;;;;;;;;;;;1030251;28;1017;-32
2021/10/02 04:04:49;;;;;;;;;;;;;;;;;;1018644;29;1754;-30
2021/10/02 04:05:20;;;;;;;;;;;;;;;;;;1018300;29;1173;-30
2021/10/02 04:05:51;;;;;;;;;;;;;;;;;;1022021;29;1322;-34
2021/10/02 04:06:22;;;;;;;;;;;;;;;;;;1022072;29;1041;-32
2021/10/02 04:06:53;;;;;;;;;;;;;;;;;;1022162;28;1130;-33
2021/10/02 04:07:23;;;;;;;;;;;;;;;;;;1021645;29;1456;-30
2021/10/02 04:07:54;;;;;;;;;;;;;;;;;;1018019;29;1169;-34
2021/10/02 04:08:24;;;;;;;;;;;;;;;;;;1018310;29;1160;-31
2021/10/02 04:08:55;;;;;;;;;;;;;;;;;;1021839;29;1392;-32
2021/10/02 04:09:26;;;;;;;;;;;;;;;;;;1030418;28;1438;-29
2021/10/02 04:09:57;;;;;;;;;;;;;;;;;;1030162;28;869;-32
2021/10/02 04:10:28;;;;;;;;;;;;;;;;;;1022062;29;1226;-29
2021/10/02 04:11:03;;;;;;;;;;;;;;;;;;1022329;29;1182;-33
2021/10/02 04:11:34;;;;;;;;;;;;;;;;;;1021492;29;1011;-31
2021/10/02 04:12:04;;;;;;;;;;;;;;;;;;1019835;28;1108;-31
2021/10/02 04:12:35;;;;;;;;;;;;;;;;;;1026231;28;1094;-29
2021/10/02 04:13:07;;;;;;;;;;;;;;;;;;1022146;29;929;-30
2021/10/02 04:13:37;;;;;;;;;;;;;;;;;;1026258;28;1077;-32
2021/10/02 04:14:08;;;;;;;;;;;;;;;;;;1014494;29;1069;-32
2021/10/02 04:14:39;;;;;;;;;;;;;;;;;;1018316;29;1138;-31
2021/10/02 04:15:10;;;;;;;;;;;;;;;;;;1018303;29;1128;-30
2021/10/02 04:15:40;;;;;;;;;;;;;;;;;;1014142;29;1494;-32
2021/10/02 04:16:11;;;;;;;;;;;;;;;;;;1022178;29;1968;-31
2021/10/02 04:16:41;;;;;;;;;;;;;;;;;;1017764;29;1341;-34
2021/10/02 04:17:12;;;;;;;;;;;;;;;;;;1025793;28;1115;-33
2021/10/02 04:17:42;;;;;;;;;;;;;;;;;;1026356;28;1133;-35
2021/10/02 04:18:13;;;;;;;;;;;;;;;;;;1025484;28;1240;-33
2021/10/02 04:18:43;;;;;;;;;;;;;;;;;;1030078;28;1593;-33
2021/10/02 04:19:13;;;;;;;;;;;;;;;;;;1027058;28;1083;-29
2021/10/02 04:19:44;;;;;;;;;;;;;;;;;;1026655;28;1064;-30
2021/10/02 04:20:15;;;;;;;;;;;;;;;;;;1034259;28;1218;-33
2021/10/02 04:20:45;;;;;;;;;;;;;;;;;;1033734;28;1421;-32
2021/10/02 04:21:16;;;;;;;;;;;;;;;;;;1021955;29;1172;-28
2021/10/02 04:21:47;;;;;;;;;;;;;;;;;;1014227;29;998;-32
2021/10/02 04:22:18;;;;;;;;;;;;;;;;;;1013810;29;1410;-32
2021/10/02 04:22:49;;;;;;;;;;;;;;;;;;1010625;29;1039;-34
2021/10/02 04:23:19;;;;;;;;;;;;;;;;;;1010174;29;1263;-34
2021/10/02 04:23:51;;;;;;;;;;;;;;;;;;1006227;29;1086;-34
2021/10/02 04:24:23;;;;;;;;;;;;;;;;;;999728;29;1031;-30
2021/10/02 04:24:53;;;;;;;;;;;;;;;;;;1014384;29;1471;-27
2021/10/02 04:25:24;;;;;;;;;;;;;;;;;;1022639;28;1122;-32
2021/10/02 04:25:55;;;;;;;;;;;;;;;;;;1017919;29;1527;-26
2021/10/02 04:26:26;;;;;;;;;;;;;;;;;;1018050;29;989;-29
2021/10/02 04:26:58;;;;;;;;;;;;;;;;;;1013657;29;1335;-29
2021/10/02 04:27:29;;;;;;;;;;;;;;;;;;1013466;29;2783;-28
2021/10/02 04:27:59;;;;;;;;;;;;;;;;;;1022264;29;1157;-31
2021/10/02 04:28:30;;;;;;;;;;;;;;;;;;1022510;28;1054;-33
2021/10/02 04:29:00;;;;;;;;;;;;;;;;;;1026716;28;1504;-31
2021/10/02 04:29:31;;;;;;;;;;;;;;;;;;1026033;28;1258;-33
2021/10/02 04:30:01;;;;;;;;;;;;;;;;;;1025826;28;1536;-33
2021/10/02 04:30:31;;;;;;;;;;;;;;;;;;1025740;28;1015;-34
2021/10/02 04:31:04;;;;;;;;;;;;;;;;;;1022302;29;1129;-33
2021/10/02 04:31:34;;;;;;;;;;;;;;;;;;1021814;29;1428;-30
2021/10/02 04:32:04;;;;;;;;;;;;;;;;;;1022239;29;1010;-31
2021/10/02 04:32:35;;;;;;;;;;;;;;;;;;1025655;28;1249;-31
2021/10/02 04:33:06;;;;;;;;;;;;;;;;;;1022393;29;907;-31
2021/10/02 04:33:36;;;;;;;;;;;;;;;;;;1022247;29;1127;-29
2021/10/02 04:34:07;;;;;;;;;;;;;;;;;;1022105;29;1422;-34
2021/10/02 04:34:37;;;;;;;;;;;;;;;;;;1026419;28;1271;-34
2021/10/02 04:35:08;;;;;;;;;;;;;;;;;;1030275;28;1067;-34
2021/10/02 04:35:39;;;;;;;;;;;;;;;;;;1021851;29;1121;-32
2021/10/02 04:36:10;;;;;;;;;;;;;;;;;;1017852;29;3625;-32
2021/10/02 04:36:40;;;;;;;;;;;;;;;;;;1017715;29;1042;-31
2021/10/02 04:37:11;;;;;;;;;;;;;;;;;;1010411;29;935;-32
2021/10/02 04:37:41;;;;;;;;;;;;;;;;;;1018052;28;1456;-29
2021/10/02 04:38:12;;;;;;;;;;;;;;;;;;1025951;28;1194;-28
2021/10/02 04:38:43;;;;;;;;;;;;;;;;;;1024918;28;3550;-31
2021/10/02 04:39:14;;;;;;;;;;;;;;;;;;1025849;28;1411;-30
2021/10/02 04:39:44;;;;;;;;;;;;;;;;;;1025995;28;1192;-33
2021/10/02 04:40:14;;;;;;;;;;;;;;;;;;1022293;28;1379;-29
2021/10/02 04:40:45;;;;;;;;;;;;;;;;;;1026366;28;1085;-33
2021/10/02 04:41:16;;;;;;;;;;;;;;;;;;1014278;29;1012;-32
2021/10/02 04:41:47;;;;;;;;;;;;;;;;;;1014112;29;1429;-26
2021/10/02 04:42:17;;;;;;;;;;;;;;;;;;1017915;29;1146;-29
2021/10/02 04:42:48;;;;;;;;;;;;;;;;;;1005022;29;1173;-31
2021/10/02 04:43:18;;;;;;;;;;;;;;;;;;1009932;29;1210;-32
2021/10/02 04:43:49;;;;;;;;;;;;;;;;;;1016251;29;1394;-30
2021/10/02 04:44:20;;;;;;;;;;;;;;;;;;1014421;29;977;-32